sensor_id;sensor_type;location;lat;lon;timestamp;temperature;humidity
52787;DHT22;38661;53.152;5.846;2023-07-09T00:00:50;22.50;71.30
52787;DHT22;38661;53.152;5.846;2023-07-09T00:03:17;22.40;71.20
52787;DHT22;38661;53.152;5.846;2023-07-09T00:05:47;22.40;71.20
52787;DHT22;38661;53.152;5.846;2023-07-09T00:08:29;22.40;71.30
52787;DHT22;38661;53.152;5.846;2023-07-09T00:10:56;22.40;71.60
52787;DHT22;38661;53.152;5.846;2023-07-09T00:13:23;22.30;71.50
52787;DHT22;38661;53.152;5.846;2023-07-09T00:15:50;22.20;71.60
52787;DHT22;38661;53.152;5.846;2023-07-09T00:18:16;22.20;71.80
52787;DHT22;38661;53.152;5.846;2023-07-09T00:20:42;22.20;71.90
52787;DHT22;38661;53.152;5.846;2023-07-09T00:23:10;22.10;71.90
52787;DHT22;38661;53.152;5.846;2023-07-09T00:25:40;22.10;72.20
52787;DHT22;38661;53.152;5.846;2023-07-09T00:28:19;22.00;72.40
52787;DHT22;38661;53.152;5.846;2023-07-09T00:30:46;21.90;72.60
52787;DHT22;38661;53.152;5.846;2023-07-09T00:33:14;21.90;72.70
52787;DHT22;38661;53.152;5.846;2023-07-09T00:35:42;21.80;72.80
52787;DHT22;38661;53.152;5.846;2023-07-09T00:38:20;21.80;73.00
52787;DHT22;38661;53.152;5.846;2023-07-09T00:40:56;21.70;73.30
52787;DHT22;38661;53.152;5.846;2023-07-09T00:43:22;21.70;73.30
52787;DHT22;38661;53.152;5.846;2023-07-09T00:48:51;21.50;73.80
52787;DHT22;38661;53.152;5.846;2023-07-09T00:51:21;21.50;73.80
52787;DHT22;38661;53.152;5.846;2023-07-09T00:53:50;21.50;73.80
52787;DHT22;38661;53.152;5.846;2023-07-09T00:56:27;21.40;74.00
52787;DHT22;38661;53.152;5.846;2023-07-09T00:58:55;21.30;74.10
52787;DHT22;38661;53.152;5.846;2023-07-09T01:01:21;21.30;74.10
52787;DHT22;38661;53.152;5.846;2023-07-09T01:03:49;21.20;74.10
52787;DHT22;38661;53.152;5.846;2023-07-09T01:06:23;21.20;74.20
52787;DHT22;38661;53.152;5.846;2023-07-09T01:08:51;21.10;74.30
52787;DHT22;38661;53.152;5.846;2023-07-09T01:11:21;21.10;74.00
52787;DHT22;38661;53.152;5.846;2023-07-09T01:13:53;21.10;73.90
52787;DHT22;38661;53.152;5.846;2023-07-09T01:16:22;21.10;73.70
52787;DHT22;38661;53.152;5.846;2023-07-09T01:18:50;21.10;73.40
52787;DHT22;38661;53.152;5.846;2023-07-09T01:21:16;21.10;73.20
52787;DHT22;38661;53.152;5.846;2023-07-09T01:23:48;21.10;73.20
52787;DHT22;38661;53.152;5.846;2023-07-09T01:26:18;21.10;73.20
52787;DHT22;38661;53.152;5.846;2023-07-09T01:28:45;21.10;73.20
52787;DHT22;38661;53.152;5.846;2023-07-09T01:31:13;21.10;73.10
52787;DHT22;38661;53.152;5.846;2023-07-09T01:33:41;21.10;73.10
52787;DHT22;38661;53.152;5.846;2023-07-09T01:36:09;21.10;73.10
52787;DHT22;38661;53.152;5.846;2023-07-09T01:38:35;21.00;73.10
52787;DHT22;38661;53.152;5.846;2023-07-09T01:41:01;21.00;73.00
52787;DHT22;38661;53.152;5.846;2023-07-09T01:43:28;21.00;73.10
52787;DHT22;38661;53.152;5.846;2023-07-09T01:45:53;21.00;73.20
52787;DHT22;38661;53.152;5.846;2023-07-09T01:48:24;21.00;73.20
52787;DHT22;38661;53.152;5.846;2023-07-09T01:50:51;21.00;73.30
52787;DHT22;38661;53.152;5.846;2023-07-09T01:53:20;20.90;73.30
52787;DHT22;38661;53.152;5.846;2023-07-09T01:55:52;20.90;73.60
52787;DHT22;38661;53.152;5.846;2023-07-09T01:58:19;20.90;73.50
52787;DHT22;38661;53.152;5.846;2023-07-09T02:00:50;20.90;73.60
52787;DHT22;38661;53.152;5.846;2023-07-09T02:03:16;20.90;73.80
52787;DHT22;38661;53.152;5.846;2023-07-09T02:05:43;20.80;73.90
52787;DHT22;38661;53.152;5.846;2023-07-09T02:08:09;20.90;73.90
52787;DHT22;38661;53.152;5.846;2023-07-09T02:10:34;20.80;74.00
52787;DHT22;38661;53.152;5.846;2023-07-09T02:13:00;20.80;74.10
52787;DHT22;38661;53.152;5.846;2023-07-09T02:15:26;20.80;74.20
52787;DHT22;38661;53.152;5.846;2023-07-09T02:17:52;20.80;74.20
52787;DHT22;38661;53.152;5.846;2023-07-09T02:20:18;20.80;74.30
52787;DHT22;38661;53.152;5.846;2023-07-09T02:22:44;20.80;74.20
52787;DHT22;38661;53.152;5.846;2023-07-09T02:25:10;20.90;74.10
52787;DHT22;38661;53.152;5.846;2023-07-09T02:27:37;20.80;74.10
52787;DHT22;38661;53.152;5.846;2023-07-09T02:30:04;20.80;74.30
52787;DHT22;38661;53.152;5.846;2023-07-09T02:32:30;20.80;74.40
52787;DHT22;38661;53.152;5.846;2023-07-09T02:34:56;20.80;74.60
52787;DHT22;38661;53.152;5.846;2023-07-09T02:37:24;20.70;74.70
52787;DHT22;38661;53.152;5.846;2023-07-09T02:39:50;20.70;74.80
52787;DHT22;38661;53.152;5.846;2023-07-09T02:42:18;20.70;75.10
52787;DHT22;38661;53.152;5.846;2023-07-09T02:44:45;20.70;75.20
52787;DHT22;38661;53.152;5.846;2023-07-09T02:47:11;20.60;75.30
52787;DHT22;38661;53.152;5.846;2023-07-09T02:49:37;20.60;75.40
52787;DHT22;38661;53.152;5.846;2023-07-09T02:52:03;20.50;75.50
52787;DHT22;38661;53.152;5.846;2023-07-09T02:54:29;20.60;75.50
52787;DHT22;38661;53.152;5.846;2023-07-09T02:56:55;20.50;75.60
52787;DHT22;38661;53.152;5.846;2023-07-09T02:59:21;20.50;75.70
52787;DHT22;38661;53.152;5.846;2023-07-09T03:01:47;20.50;75.90
52787;DHT22;38661;53.152;5.846;2023-07-09T03:04:14;20.50;76.00
52787;DHT22;38661;53.152;5.846;2023-07-09T03:06:40;20.50;75.80
52787;DHT22;38661;53.152;5.846;2023-07-09T03:09:06;20.50;76.00
52787;DHT22;38661;53.152;5.846;2023-07-09T03:11:34;20.40;76.00
52787;DHT22;38661;53.152;5.846;2023-07-09T03:14:01;20.40;76.30
52787;DHT22;38661;53.152;5.846;2023-07-09T03:16:28;20.40;76.20
52787;DHT22;38661;53.152;5.846;2023-07-09T03:18:55;20.30;76.30
52787;DHT22;38661;53.152;5.846;2023-07-09T03:21:22;20.20;76.40
52787;DHT22;38661;53.152;5.846;2023-07-09T03:23:48;20.20;76.60
52787;DHT22;38661;53.152;5.846;2023-07-09T03:26:13;20.20;76.70
52787;DHT22;38661;53.152;5.846;2023-07-09T03:28:40;20.20;76.70
52787;DHT22;38661;53.152;5.846;2023-07-09T03:31:07;20.20;76.90
52787;DHT22;38661;53.152;5.846;2023-07-09T03:33:33;20.20;77.00
52787;DHT22;38661;53.152;5.846;2023-07-09T03:35:58;20.20;76.90
52787;DHT22;38661;53.152;5.846;2023-07-09T03:38:24;20.20;77.00
52787;DHT22;38661;53.152;5.846;2023-07-09T03:40:54;20.10;77.00
52787;DHT22;38661;53.152;5.846;2023-07-09T03:43:20;20.10;77.00
52787;DHT22;38661;53.152;5.846;2023-07-09T03:45:47;20.10;76.90
52787;DHT22;38661;53.152;5.846;2023-07-09T03:48:14;20.10;76.90
52787;DHT22;38661;53.152;5.846;2023-07-09T03:50:42;20.10;76.80
52787;DHT22;38661;53.152;5.846;2023-07-09T03:53:09;20.10;76.70
52787;DHT22;38661;53.152;5.846;2023-07-09T03:55:34;20.20;76.60
52787;DHT22;38661;53.152;5.846;2023-07-09T03:58:00;20.20;76.60
52787;DHT22;38661;53.152;5.846;2023-07-09T04:00:28;20.30;76.70
52787;DHT22;38661;53.152;5.846;2023-07-09T04:02:54;20.30;76.80
52787;DHT22;38661;53.152;5.846;2023-07-09T04:05:23;20.30;76.60
52787;DHT22;38661;53.152;5.846;2023-07-09T04:07:48;20.30;76.30
52787;DHT22;38661;53.152;5.846;2023-07-09T04:10:14;20.40;76.20
52787;DHT22;38661;53.152;5.846;2023-07-09T04:12:40;20.40;75.90
52787;DHT22;38661;53.152;5.846;2023-07-09T04:15:07;20.40;76.00
52787;DHT22;38661;53.152;5.846;2023-07-09T04:17:33;20.40;75.80
52787;DHT22;38661;53.152;5.846;2023-07-09T04:19:59;20.40;75.60
52787;DHT22;38661;53.152;5.846;2023-07-09T04:22:26;20.50;75.60
52787;DHT22;38661;53.152;5.846;2023-07-09T04:24:52;20.50;75.50
52787;DHT22;38661;53.152;5.846;2023-07-09T04:27:18;20.50;75.20
52787;DHT22;38661;53.152;5.846;2023-07-09T04:29:44;20.50;74.90
52787;DHT22;38661;53.152;5.846;2023-07-09T04:32:14;20.50;74.90
52787;DHT22;38661;53.152;5.846;2023-07-09T04:34:41;20.50;74.80
52787;DHT22;38661;53.152;5.846;2023-07-09T04:37:08;20.50;74.90
52787;DHT22;38661;53.152;5.846;2023-07-09T04:39:35;20.50;74.70
52787;DHT22;38661;53.152;5.846;2023-07-09T04:42:00;20.50;74.80
52787;DHT22;38661;53.152;5.846;2023-07-09T04:44:26;20.60;74.70
52787;DHT22;38661;53.152;5.846;2023-07-09T04:46:52;20.50;75.60
52787;DHT22;38661;53.152;5.846;2023-07-09T04:49:17;20.50;75.70
52787;DHT22;38661;53.152;5.846;2023-07-09T04:51:43;20.50;76.00
52787;DHT22;38661;53.152;5.846;2023-07-09T04:54:09;20.50;76.30
52787;DHT22;38661;53.152;5.846;2023-07-09T04:56:34;20.60;76.20
52787;DHT22;38661;53.152;5.846;2023-07-09T04:59:02;20.60;76.10
52787;DHT22;38661;53.152;5.846;2023-07-09T05:01:27;20.60;76.00
52787;DHT22;38661;53.152;5.846;2023-07-09T05:03:54;20.60;75.90
52787;DHT22;38661;53.152;5.846;2023-07-09T05:06:20;20.70;75.80
52787;DHT22;38661;53.152;5.846;2023-07-09T05:08:47;20.70;75.70
52787;DHT22;38661;53.152;5.846;2023-07-09T05:11:14;20.80;76.10
52787;DHT22;38661;53.152;5.846;2023-07-09T05:13:40;20.80;76.20
52787;DHT22;38661;53.152;5.846;2023-07-09T05:16:06;20.80;76.20
52787;DHT22;38661;53.152;5.846;2023-07-09T05:18:32;20.90;76.10
52787;DHT22;38661;53.152;5.846;2023-07-09T05:20:57;20.90;76.50
52787;DHT22;38661;53.152;5.846;2023-07-09T05:23:26;20.90;76.70
52787;DHT22;38661;53.152;5.846;2023-07-09T05:26:03;20.90;76.60
52787;DHT22;38661;53.152;5.846;2023-07-09T05:28:29;21.00;76.50
52787;DHT22;38661;53.152;5.846;2023-07-09T05:30:55;21.00;76.20
52787;DHT22;38661;53.152;5.846;2023-07-09T05:33:21;21.10;76.10
52787;DHT22;38661;53.152;5.846;2023-07-09T05:35:47;21.10;76.20
52787;DHT22;38661;53.152;5.846;2023-07-09T05:38:14;21.10;76.40
52787;DHT22;38661;53.152;5.846;2023-07-09T05:40:41;21.20;76.70
52787;DHT22;38661;53.152;5.846;2023-07-09T05:43:07;21.20;76.60
52787;DHT22;38661;53.152;5.846;2023-07-09T05:45:33;21.20;77.00
52787;DHT22;38661;53.152;5.846;2023-07-09T05:47:59;21.20;77.00
52787;DHT22;38661;53.152;5.846;2023-07-09T05:50:26;21.30;77.00
52787;DHT22;38661;53.152;5.846;2023-07-09T05:52:52;21.30;77.10
52787;DHT22;38661;53.152;5.846;2023-07-09T05:55:18;21.40;76.90
52787;DHT22;38661;53.152;5.846;2023-07-09T05:57:44;21.40;76.80
52787;DHT22;38661;53.152;5.846;2023-07-09T06:00:10;21.50;77.20
52787;DHT22;38661;53.152;5.846;2023-07-09T06:02:36;21.60;77.00
52787;DHT22;38661;53.152;5.846;2023-07-09T06:05:01;21.70;77.20
52787;DHT22;38661;53.152;5.846;2023-07-09T06:07:27;21.70;76.80
52787;DHT22;38661;53.152;5.846;2023-07-09T06:09:53;21.80;76.90
52787;DHT22;38661;53.152;5.846;2023-07-09T06:12:19;21.80;76.90
52787;DHT22;38661;53.152;5.846;2023-07-09T06:14:45;21.90;76.90
52787;DHT22;38661;53.152;5.846;2023-07-09T06:17:12;21.90;76.80
52787;DHT22;38661;53.152;5.846;2023-07-09T06:19:38;22.00;77.00
52787;DHT22;38661;53.152;5.846;2023-07-09T06:22:04;22.10;77.30
52787;DHT22;38661;53.152;5.846;2023-07-09T06:24:30;22.10;76.90
52787;DHT22;38661;53.152;5.846;2023-07-09T06:26:56;22.20;77.50
52787;DHT22;38661;53.152;5.846;2023-07-09T06:29:22;22.30;77.50
52787;DHT22;38661;53.152;5.846;2023-07-09T06:31:48;22.40;77.10
52787;DHT22;38661;53.152;5.846;2023-07-09T06:34:14;22.40;77.10
52787;DHT22;38661;53.152;5.846;2023-07-09T06:36:39;22.50;77.00
52787;DHT22;38661;53.152;5.846;2023-07-09T06:39:05;22.70;77.10
52787;DHT22;38661;53.152;5.846;2023-07-09T06:41:31;22.80;76.50
52787;DHT22;38661;53.152;5.846;2023-07-09T06:43:58;22.90;76.40
52787;DHT22;38661;53.152;5.846;2023-07-09T06:46:24;23.10;76.40
52787;DHT22;38661;53.152;5.846;2023-07-09T06:48:49;23.30;76.10
52787;DHT22;38661;53.152;5.846;2023-07-09T06:51:15;23.40;75.90
52787;DHT22;38661;53.152;5.846;2023-07-09T06:53:42;23.50;75.70
52787;DHT22;38661;53.152;5.846;2023-07-09T06:56:09;23.60;75.40
52787;DHT22;38661;53.152;5.846;2023-07-09T06:58:36;23.80;75.20
52787;DHT22;38661;53.152;5.846;2023-07-09T07:01:03;23.80;75.00
52787;DHT22;38661;53.152;5.846;2023-07-09T07:03:30;23.90;74.90
52787;DHT22;38661;53.152;5.846;2023-07-09T07:05:56;23.90;74.80
52787;DHT22;38661;53.152;5.846;2023-07-09T07:08:24;23.90;75.00
52787;DHT22;38661;53.152;5.846;2023-07-09T07:10:53;23.90;75.10
52787;DHT22;38661;53.152;5.846;2023-07-09T07:13:24;24.00;75.10
52787;DHT22;38661;53.152;5.846;2023-07-09T07:15:49;24.10;75.30
52787;DHT22;38661;53.152;5.846;2023-07-09T07:18:15;24.20;75.30
52787;DHT22;38661;53.152;5.846;2023-07-09T07:20:41;24.30;75.40
52787;DHT22;38661;53.152;5.846;2023-07-09T07:23:06;24.40;75.30
52787;DHT22;38661;53.152;5.846;2023-07-09T07:25:32;24.50;75.20
52787;DHT22;38661;53.152;5.846;2023-07-09T07:27:58;24.60;74.80
52787;DHT22;38661;53.152;5.846;2023-07-09T07:30:24;24.80;74.70
52787;DHT22;38661;53.152;5.846;2023-07-09T07:32:50;24.90;74.40
52787;DHT22;38661;53.152;5.846;2023-07-09T07:35:16;25.00;73.60
52787;DHT22;38661;53.152;5.846;2023-07-09T07:37:43;25.10;73.40
52787;DHT22;38661;53.152;5.846;2023-07-09T07:40:10;25.10;74.20
52787;DHT22;38661;53.152;5.846;2023-07-09T07:42:36;25.20;74.40
52787;DHT22;38661;53.152;5.846;2023-07-09T07:45:03;25.30;74.30
52787;DHT22;38661;53.152;5.846;2023-07-09T07:47:29;25.40;74.10
52787;DHT22;38661;53.152;5.846;2023-07-09T07:49:56;25.40;73.40
52787;DHT22;38661;53.152;5.846;2023-07-09T07:52:22;25.40;73.60
52787;DHT22;38661;53.152;5.846;2023-07-09T07:54:48;25.50;73.90
52787;DHT22;38661;53.152;5.846;2023-07-09T07:57:14;25.50;73.30
52787;DHT22;38661;53.152;5.846;2023-07-09T07:59:40;25.60;73.60
52787;DHT22;38661;53.152;5.846;2023-07-09T08:02:10;25.60;73.20
52787;DHT22;38661;53.152;5.846;2023-07-09T08:04:36;25.70;73.00
52787;DHT22;38661;53.152;5.846;2023-07-09T08:07:02;25.70;71.40
52787;DHT22;38661;53.152;5.846;2023-07-09T08:09:28;25.80;69.90
52787;DHT22;38661;53.152;5.846;2023-07-09T08:11:54;25.80;69.20
52787;DHT22;38661;53.152;5.846;2023-07-09T08:14:20;25.80;68.60
52787;DHT22;38661;53.152;5.846;2023-07-09T08:16:47;25.80;68.20
52787;DHT22;38661;53.152;5.846;2023-07-09T08:19:13;25.80;68.20
52787;DHT22;38661;53.152;5.846;2023-07-09T08:21:38;25.90;68.30
52787;DHT22;38661;53.152;5.846;2023-07-09T08:24:04;25.90;68.10
52787;DHT22;38661;53.152;5.846;2023-07-09T08:26:30;25.90;67.90
52787;DHT22;38661;53.152;5.846;2023-07-09T08:28:57;25.90;66.30
52787;DHT22;38661;53.152;5.846;2023-07-09T08:31:22;25.90;65.40
52787;DHT22;38661;53.152;5.846;2023-07-09T08:33:48;26.00;64.20
52787;DHT22;38661;53.152;5.846;2023-07-09T08:36:14;26.00;63.90
52787;DHT22;38661;53.152;5.846;2023-07-09T08:38:40;26.10;63.50
52787;DHT22;38661;53.152;5.846;2023-07-09T08:46:10;26.20;63.40
52787;DHT22;38661;53.152;5.846;2023-07-09T08:48:41;26.20;63.70
52787;DHT22;38661;53.152;5.846;2023-07-09T08:51:18;26.40;63.90
52787;DHT22;38661;53.152;5.846;2023-07-09T08:53:58;26.50;63.90
52787;DHT22;38661;53.152;5.846;2023-07-09T08:56:25;26.50;63.40
52787;DHT22;38661;53.152;5.846;2023-07-09T08:58:53;26.60;64.00
52787;DHT22;38661;53.152;5.846;2023-07-09T09:01:50;26.80;64.60
52787;DHT22;38661;53.152;5.846;2023-07-09T09:04:20;26.80;61.70
52787;DHT22;38661;53.152;5.846;2023-07-09T09:06:52;26.90;60.00
52787;DHT22;38661;53.152;5.846;2023-07-09T09:09:31;26.90;60.50
52787;DHT22;38661;53.152;5.846;2023-07-09T09:12:20;27.00;61.10
52787;DHT22;38661;53.152;5.846;2023-07-09T09:14:52;27.00;58.70
52787;DHT22;38661;53.152;5.846;2023-07-09T09:17:24;27.00;57.40
52787;DHT22;38661;53.152;5.846;2023-07-09T09:19:57;27.10;56.90
52787;DHT22;38661;53.152;5.846;2023-07-09T09:22:29;27.20;55.00
52787;DHT22;38661;53.152;5.846;2023-07-09T09:25:11;27.30;53.90
52787;DHT22;38661;53.152;5.846;2023-07-09T09:27:41;27.30;52.70
52787;DHT22;38661;53.152;5.846;2023-07-09T09:30:22;27.40;53.30
52787;DHT22;38661;53.152;5.846;2023-07-09T09:35:25;27.70;53.90
52787;DHT22;38661;53.152;5.846;2023-07-09T09:37:55;27.80;53.90
52787;DHT22;38661;53.152;5.846;2023-07-09T09:40:22;27.90;53.60
52787;DHT22;38661;53.152;5.846;2023-07-09T09:42:57;27.90;53.20
52787;DHT22;38661;53.152;5.846;2023-07-09T09:45:33;28.00;53.10
52787;DHT22;38661;53.152;5.846;2023-07-09T09:48:01;28.00;53.70
52787;DHT22;38661;53.152;5.846;2023-07-09T09:50:31;28.20;53.60
52787;DHT22;38661;53.152;5.846;2023-07-09T09:52:59;28.30;53.30
52787;DHT22;38661;53.152;5.846;2023-07-09T09:55:29;28.40;51.10
52787;DHT22;38661;53.152;5.846;2023-07-09T09:57:56;28.40;50.30
52787;DHT22;38661;53.152;5.846;2023-07-09T10:00:24;28.50;48.70
52787;DHT22;38661;53.152;5.846;2023-07-09T10:02:58;28.50;48.30
52787;DHT22;38661;53.152;5.846;2023-07-09T10:05:31;28.50;49.40
52787;DHT22;38661;53.152;5.846;2023-07-09T10:08:08;28.60;50.80
52787;DHT22;38661;53.152;5.846;2023-07-09T10:10:34;28.70;51.50
52787;DHT22;38661;53.152;5.846;2023-07-09T10:16:17;28.70;52.50
52787;DHT22;38661;53.152;5.846;2023-07-09T10:18:53;28.80;52.90
52787;DHT22;38661;53.152;5.846;2023-07-09T10:24:33;28.90;51.80
52787;DHT22;38661;53.152;5.846;2023-07-09T10:30:13;29.20;51.00
52787;DHT22;38661;53.152;5.846;2023-07-09T10:32:57;29.30;51.30
52787;DHT22;38661;53.152;5.846;2023-07-09T10:40:59;29.50;49.00
52787;DHT22;38661;53.152;5.846;2023-07-09T10:44:04;29.60;48.50
52787;DHT22;38661;53.152;5.846;2023-07-09T10:46:37;29.80;49.90
52787;DHT22;38661;53.152;5.846;2023-07-09T10:49:07;29.80;49.90
52787;DHT22;38661;53.152;5.846;2023-07-09T10:51:39;29.90;49.80
52787;DHT22;38661;53.152;5.846;2023-07-09T10:54:24;29.90;49.40
52787;DHT22;38661;53.152;5.846;2023-07-09T10:57:02;30.10;49.40
52787;DHT22;38661;53.152;5.846;2023-07-09T10:59:34;30.10;48.60
52787;DHT22;38661;53.152;5.846;2023-07-09T11:02:54;30.20;48.60
52787;DHT22;38661;53.152;5.846;2023-07-09T11:05:11;30.30;49.30
52787;DHT22;38661;53.152;5.846;2023-07-09T11:10:36;30.60;48.30
52787;DHT22;38661;53.152;5.846;2023-07-09T11:13:10;30.60;47.60
52787;DHT22;38661;53.152;5.846;2023-07-09T11:15:44;30.70;47.20
52787;DHT22;38661;53.152;5.846;2023-07-09T11:18:20;30.80;46.60
52787;DHT22;38661;53.152;5.846;2023-07-09T11:21:04;30.80;46.30
52787;DHT22;38661;53.152;5.846;2023-07-09T11:23:58;30.90;46.40
52787;DHT22;38661;53.152;5.846;2023-07-09T11:26:35;30.90;46.80
52787;DHT22;38661;53.152;5.846;2023-07-09T11:31:39;31.20;45.90
52787;DHT22;38661;53.152;5.846;2023-07-09T11:34:08;31.30;46.80
52787;DHT22;38661;53.152;5.846;2023-07-09T11:36:45;31.50;46.60
52787;DHT22;38661;53.152;5.846;2023-07-09T11:41:45;31.70;46.00
52787;DHT22;38661;53.152;5.846;2023-07-09T11:44:44;31.80;46.80
52787;DHT22;38661;53.152;5.846;2023-07-09T11:47:24;31.90;46.00
52787;DHT22;38661;53.152;5.846;2023-07-09T11:50:04;32.00;45.00
52787;DHT22;38661;53.152;5.846;2023-07-09T11:52:35;32.00;45.20
52787;DHT22;38661;53.152;5.846;2023-07-09T11:58:03;32.30;45.20
52787;DHT22;38661;53.152;5.846;2023-07-09T12:00:43;32.30;45.60
52787;DHT22;38661;53.152;5.846;2023-07-09T12:03:15;32.40;43.70
52787;DHT22;38661;53.152;5.846;2023-07-09T12:05:48;32.50;44.20
52787;DHT22;38661;53.152;5.846;2023-07-09T12:08:15;32.60;43.10
52787;DHT22;38661;53.152;5.846;2023-07-09T12:10:42;32.70;43.00
52787;DHT22;38661;53.152;5.846;2023-07-09T12:13:11;32.80;42.70
52787;DHT22;38661;53.152;5.846;2023-07-09T12:15:39;32.80;41.70
52787;DHT22;38661;53.152;5.846;2023-07-09T12:18:15;32.80;42.90
52787;DHT22;38661;53.152;5.846;2023-07-09T12:20:45;32.80;44.10
52787;DHT22;38661;53.152;5.846;2023-07-09T12:23:23;32.80;44.60
52787;DHT22;38661;53.152;5.846;2023-07-09T12:25:51;32.60;42.50
52787;DHT22;38661;53.152;5.846;2023-07-09T12:28:19;32.40;43.70
52787;DHT22;38661;53.152;5.846;2023-07-09T12:30:50;32.20;45.30
52787;DHT22;38661;53.152;5.846;2023-07-09T12:33:18;32.00;45.40
52787;DHT22;38661;53.152;5.846;2023-07-09T12:35:45;31.90;45.90
52787;DHT22;38661;53.152;5.846;2023-07-09T12:38:22;31.80;45.80
52787;DHT22;38661;53.152;5.846;2023-07-09T12:40:50;31.80;44.90
52787;DHT22;38661;53.152;5.846;2023-07-09T12:43:39;32.00;44.80
52787;DHT22;38661;53.152;5.846;2023-07-09T12:46:04;32.10;44.40
52787;DHT22;38661;53.152;5.846;2023-07-09T12:48:30;32.40;44.30
52787;DHT22;38661;53.152;5.846;2023-07-09T12:50:57;32.50;43.10
52787;DHT22;38661;53.152;5.846;2023-07-09T12:53:26;32.50;43.10
52787;DHT22;38661;53.152;5.846;2023-07-09T12:55:55;32.30;42.50
52787;DHT22;38661;53.152;5.846;2023-07-09T12:58:24;32.10;42.40
52787;DHT22;38661;53.152;5.846;2023-07-09T13:00:53;31.90;42.70
52787;DHT22;38661;53.152;5.846;2023-07-09T13:03:24;31.70;41.80
52787;DHT22;38661;53.152;5.846;2023-07-09T13:05:58;31.40;42.10
52787;DHT22;38661;53.152;5.846;2023-07-09T13:08:29;31.40;42.40
52787;DHT22;38661;53.152;5.846;2023-07-09T13:10:55;31.60;43.80
52787;DHT22;38661;53.152;5.846;2023-07-09T13:13:23;31.80;43.30
52787;DHT22;38661;53.152;5.846;2023-07-09T13:15:52;31.70;42.50
52787;DHT22;38661;53.152;5.846;2023-07-09T13:18:23;31.40;42.30
52787;DHT22;38661;53.152;5.846;2023-07-09T13:20:54;31.10;43.00
52787;DHT22;38661;53.152;5.846;2023-07-09T13:23:23;30.90;42.70
52787;DHT22;38661;53.152;5.846;2023-07-09T13:25:50;30.60;43.40
52787;DHT22;38661;53.152;5.846;2023-07-09T13:28:24;30.40;44.70
52787;DHT22;38661;53.152;5.846;2023-07-09T13:31:19;30.30;45.60
52787;DHT22;38661;53.152;5.846;2023-07-09T13:33:57;30.20;45.60
52787;DHT22;38661;53.152;5.846;2023-07-09T13:36:23;30.20;44.90
52787;DHT22;38661;53.152;5.846;2023-07-09T13:38:50;30.20;44.50
52787;DHT22;38661;53.152;5.846;2023-07-09T13:41:19;30.20;43.40
52787;DHT22;38661;53.152;5.846;2023-07-09T13:43:48;30.30;43.40
52787;DHT22;38661;53.152;5.846;2023-07-09T13:46:14;30.50;44.20
52787;DHT22;38661;53.152;5.846;2023-07-09T13:48:42;30.80;43.50
52787;DHT22;38661;53.152;5.846;2023-07-09T13:51:22;31.00;41.80
52787;DHT22;38661;53.152;5.846;2023-07-09T13:53:50;31.30;42.00
52787;DHT22;38661;53.152;5.846;2023-07-09T13:56:17;31.50;42.70
52787;DHT22;38661;53.152;5.846;2023-07-09T13:58:43;31.70;41.50
52787;DHT22;38661;53.152;5.846;2023-07-09T14:01:14;31.80;41.90
52787;DHT22;38661;53.152;5.846;2023-07-09T14:03:41;31.60;40.60
52787;DHT22;38661;53.152;5.846;2023-07-09T14:06:12;31.60;39.70
52787;DHT22;38661;53.152;5.846;2023-07-09T14:08:39;31.40;40.60
52787;DHT22;38661;53.152;5.846;2023-07-09T14:11:11;31.00;40.30
52787;DHT22;38661;53.152;5.846;2023-07-09T14:13:38;30.70;40.20
52787;DHT22;38661;53.152;5.846;2023-07-09T14:16:04;30.40;40.10
52787;DHT22;38661;53.152;5.846;2023-07-09T14:18:30;30.00;43.00
52787;DHT22;38661;53.152;5.846;2023-07-09T14:20:56;29.50;45.20
52787;DHT22;38661;53.152;5.846;2023-07-09T14:23:22;28.90;45.40
52787;DHT22;38661;53.152;5.846;2023-07-09T14:25:48;28.40;43.70
52787;DHT22;38661;53.152;5.846;2023-07-09T14:28:19;28.00;44.80
52787;DHT22;38661;53.152;5.846;2023-07-09T14:30:46;27.70;47.30
52787;DHT22;38661;53.152;5.846;2023-07-09T14:33:20;27.50;51.20
52787;DHT22;38661;53.152;5.846;2023-07-09T14:35:47;27.20;54.60
52787;DHT22;38661;53.152;5.846;2023-07-09T14:38:24;26.90;56.30
52787;DHT22;38661;53.152;5.846;2023-07-09T14:41:14;26.60;57.80
52787;DHT22;38661;53.152;5.846;2023-07-09T14:43:41;26.30;59.10
52787;DHT22;38661;53.152;5.846;2023-07-09T14:46:06;26.00;60.60
52787;DHT22;38661;53.152;5.846;2023-07-09T14:48:32;25.90;63.00
52787;DHT22;38661;53.152;5.846;2023-07-09T14:50:58;25.50;64.60
52787;DHT22;38661;53.152;5.846;2023-07-09T14:53:26;25.20;67.00
52787;DHT22;38661;53.152;5.846;2023-07-09T14:55:53;25.00;69.10
52787;DHT22;38661;53.152;5.846;2023-07-09T14:58:21;24.90;70.20
52787;DHT22;38661;53.152;5.846;2023-07-09T15:00:47;24.60;71.50
52787;DHT22;38661;53.152;5.846;2023-07-09T15:03:22;24.40;74.00
52787;DHT22;38661;53.152;5.846;2023-07-09T15:05:49;24.00;75.90
52787;DHT22;38661;53.152;5.846;2023-07-09T15:08:17;23.90;76.50
52787;DHT22;38661;53.152;5.846;2023-07-09T15:10:44;23.60;76.30
52787;DHT22;38661;53.152;5.846;2023-07-09T15:13:39;23.40;76.90
52787;DHT22;38661;53.152;5.846;2023-07-09T15:16:05;23.30;78.20
52787;DHT22;38661;53.152;5.846;2023-07-09T15:18:32;23.10;80.80
52787;DHT22;38661;53.152;5.846;2023-07-09T15:21:01;23.00;79.60
52787;DHT22;38661;53.152;5.846;2023-07-09T15:23:28;22.90;79.60
52787;DHT22;38661;53.152;5.846;2023-07-09T15:25:55;23.00;80.20
52787;DHT22;38661;53.152;5.846;2023-07-09T15:28:21;23.10;79.90
52787;DHT22;38661;53.152;5.846;2023-07-09T15:30:47;23.10;79.80
52787;DHT22;38661;53.152;5.846;2023-07-09T15:33:16;23.10;79.80
52787;DHT22;38661;53.152;5.846;2023-07-09T15:35:43;23.20;80.20
52787;DHT22;38661;53.152;5.846;2023-07-09T15:38:29;23.20;79.80
52787;DHT22;38661;53.152;5.846;2023-07-09T15:40:56;23.20;80.40
52787;DHT22;38661;53.152;5.846;2023-07-09T15:43:22;23.30;80.30
52787;DHT22;38661;53.152;5.846;2023-07-09T15:45:51;23.30;79.50
52787;DHT22;38661;53.152;5.846;2023-07-09T15:48:23;23.30;80.00
52787;DHT22;38661;53.152;5.846;2023-07-09T15:50:50;23.20;80.30
52787;DHT22;38661;53.152;5.846;2023-07-09T15:53:16;23.20;80.00
52787;DHT22;38661;53.152;5.846;2023-07-09T15:55:42;23.20;80.30
52787;DHT22;38661;53.152;5.846;2023-07-09T15:58:59;23.10;80.40
52787;DHT22;38661;53.152;5.846;2023-07-09T16:01:00;23.00;80.50
52787;DHT22;38661;53.152;5.846;2023-07-09T16:03:25;23.00;80.40
52787;DHT22;38661;53.152;5.846;2023-07-09T16:05:51;22.90;80.40
52787;DHT22;38661;53.152;5.846;2023-07-09T16:08:17;22.90;80.40
52787;DHT22;38661;53.152;5.846;2023-07-09T16:10:43;22.70;80.30
52787;DHT22;38661;53.152;5.846;2023-07-09T16:13:20;22.60;80.60
52787;DHT22;38661;53.152;5.846;2023-07-09T16:15:47;22.60;80.80
52787;DHT22;38661;53.152;5.846;2023-07-09T16:18:13;22.50;80.70